Airfield :
LOGIN :

Register | Disclaimer

   EN    FR    IT 

 










Legend :    VFR   Marginal VFR   IFR   Intensive IFR   Very Intensive IFR
Visi :
Ceiling :
>= 8 km
>= 3000ft
5 to 8 km
1000 to 3000 ft
1500m to 5 km
500 to 1000 ft
800 to 1500m
200 to 500 ft
< 800m
< 200 ft
Symbols :   Thunderstorms  Fog  Heavy snow  Heavy precipitations  Wind > 20 kt
SIGMETs :     Misc.  Thunderstorms  Icing  Turbulence  Mountain Waves  Volcanic Ashes






- Airport Elevation : 416 ft
- IATA code : OVD


LEAS - Asturias

CURRENT METAR :
  • 231730Z 10003KT 070V140 CAVOK 15/11 Q1021 NOSIG

EXPIRED METARs :
  • 231700Z 11004KT CAVOK 15/11 Q1021 NOSIG
  • 231630Z 10005KT 080V160 CAVOK 17/11 Q1020 NOSIG
  • 231600Z 10005KT 080V160 CAVOK 17/12 Q1021 NOSIG
  • 231530Z 08004KT 050V110 CAVOK 18/12 Q1020 NOSIG
  • 231500Z 08004KT 030V110 CAVOK 19/12 Q1020 NOSIG

TAF AMD TAF LEAS
Valid from the 23 at 15:00 until the 24 at 15:00 UTC


231500Z 2315/2415 VRB05KT 9999 FEW030 TX19/2414Z TN09/2407Z
PROB30
TEMPO 2403/2407 3000 BR BCFG



MET'MAP, your aeronautical weather chart ! - Copyright ORBIFLY December 2007 - Disclaimer

ORBIFLY MET'MAP TEAM :

Programming & Development : Alexandra Zaïnal
Concept & original design : Baudouin d'Aumeries
Assistance for programming : Marc-Olivier Méhu
Technical & hardware support : Manuel Goepfert

Contact : metmap@orbifly.com




SOURCES & CREDITS :

   NOAA